createdAt,value
2022-10-06T00:01:21.996Z,7.50
2022-10-06T00:03:51.017Z,7.20
2022-10-06T00:06:20.134Z,7.60
2022-10-06T00:09:25.937Z,6.90
2022-10-06T00:11:56.694Z,6.60
2022-10-06T00:14:43.697Z,7.10
2022-10-06T00:17:15.587Z,6.80
2022-10-06T00:19:46.454Z,6.90
2022-10-06T00:22:15.549Z,7.70
2022-10-06T00:24:44.800Z,5.90
2022-10-06T00:27:14.046Z,6.80
2022-10-06T00:29:43.119Z,6.80
2022-10-06T00:32:12.292Z,6.60
2022-10-06T00:34:41.224Z,6.60
2022-10-06T00:37:10.304Z,6.90
2022-10-06T00:39:39.251Z,6.10
2022-10-06T00:42:29.916Z,6.90
2022-10-06T00:45:06.439Z,6.00
2022-10-06T00:47:35.864Z,5.90
2022-10-06T00:50:05.476Z,6.50
2022-10-06T00:52:35.333Z,6.70
2022-10-06T00:55:09.389Z,6.60
2022-10-06T00:57:40.713Z,6.00
2022-10-06T01:00:10.541Z,7.20
2022-10-06T01:02:51.057Z,6.90
2022-10-06T01:05:30.454Z,5.30
2022-10-06T01:07:59.980Z,6.70
2022-10-06T01:10:29.029Z,6.90
2022-10-06T01:12:58.302Z,6.60
2022-10-06T01:15:28.949Z,6.80
2022-10-06T01:18:09.949Z,7.00
2022-10-06T01:20:44.431Z,6.10
2022-10-06T01:23:13.695Z,7.30
2022-10-06T01:25:42.805Z,6.70
2022-10-06T01:28:14.091Z,7.60
2022-10-06T01:30:54.811Z,6.20
2022-10-06T01:33:25.481Z,6.10
2022-10-06T01:35:54.749Z,6.20
2022-10-06T01:38:25.153Z,6.70
2022-10-06T01:40:59.749Z,6.70
2022-10-06T01:43:28.731Z,7.30
2022-10-06T01:45:59.188Z,7.00
2022-10-06T01:48:28.594Z,9.20
2022-10-06T01:53:29.061Z,12.20
2022-10-06T01:55:59.971Z,14.80
2022-10-06T01:58:31.074Z,16.50
2022-10-06T02:01:10.037Z,17.70
2022-10-06T02:03:40.764Z,20.80
2022-10-06T02:08:40.343Z,17.80
2022-10-06T02:11:12.202Z,17.10
2022-10-06T02:13:44.163Z,16.00
2022-10-06T02:16:14.316Z,14.70
2022-10-06T02:18:44.970Z,15.00
2022-10-06T02:21:20.219Z,14.60
2022-10-06T02:23:49.369Z,13.80
2022-10-06T02:26:19.270Z,13.20
2022-10-06T02:28:52.159Z,13.10
2022-10-06T02:31:24.358Z,12.90
2022-10-06T02:33:54.385Z,14.10
2022-10-06T02:36:25.106Z,15.40
2022-10-06T02:38:54.605Z,13.60
2022-10-06T02:41:24.405Z,12.30
2022-10-06T02:43:55.325Z,12.20
2022-10-06T02:46:25.736Z,13.00
2022-10-06T02:48:55.216Z,11.10
2022-10-06T02:51:25.397Z,9.80
2022-10-06T02:53:55.141Z,10.60
2022-10-06T02:56:29.412Z,8.70
2022-10-06T02:58:59.539Z,8.70
2022-10-06T03:01:32.645Z,8.30
2022-10-06T03:04:06.211Z,8.60
2022-10-06T03:06:37.241Z,7.90
2022-10-06T03:09:10.694Z,7.30
2022-10-06T03:11:43.535Z,6.80
2022-10-06T03:14:21.363Z,6.90
2022-10-06T03:16:56.834Z,8.10
2022-10-06T03:19:28.269Z,6.90
2022-10-06T03:21:57.336Z,7.50
2022-10-06T03:24:37.497Z,6.60
2022-10-06T03:27:06.959Z,6.10
2022-10-06T03:29:36.163Z,6.00
2022-10-06T03:32:05.626Z,5.80
2022-10-06T03:34:35.874Z,6.10
2022-10-06T03:37:06.282Z,5.60
2022-10-06T03:39:35.752Z,6.00
2022-10-06T03:42:04.619Z,6.20
2022-10-06T03:44:35.571Z,6.50
2022-10-06T03:47:04.848Z,6.50
2022-10-06T03:49:34.568Z,6.10
2022-10-06T03:52:03.585Z,6.30
2022-10-06T03:54:36.263Z,6.60
2022-10-06T03:57:05.198Z,5.70
2022-10-06T03:59:34.885Z,6.40
2022-10-06T04:02:05.674Z,6.20
2022-10-06T04:04:38.767Z,5.70
2022-10-06T04:07:11.549Z,6.00
2022-10-06T04:09:41.374Z,6.30
2022-10-06T04:12:12.113Z,5.50
2022-10-06T04:14:41.947Z,5.90
2022-10-06T04:17:11.028Z,5.90
2022-10-06T04:19:42.107Z,5.40
2022-10-06T04:22:11.111Z,6.20
2022-10-06T04:24:40.289Z,6.00
2022-10-06T04:27:27.523Z,5.40
2022-10-06T04:30:15.423Z,5.50
2022-10-06T04:32:46.181Z,5.10
2022-10-06T04:35:15.492Z,6.10
2022-10-06T04:37:44.547Z,5.80
2022-10-06T04:40:13.834Z,6.40
2022-10-06T04:42:43.222Z,6.10
2022-10-06T04:45:16.008Z,5.70
2022-10-06T04:47:48.725Z,7.30
2022-10-06T04:50:18.573Z,6.40
2022-10-06T04:53:05.947Z,6.30
2022-10-06T04:55:35.026Z,7.10
2022-10-06T04:58:04.799Z,5.30
2022-10-06T05:00:34.041Z,9.20
2022-10-06T05:03:02.928Z,6.00
2022-10-06T05:05:32.025Z,5.10
2022-10-06T05:08:01.139Z,4.90
2022-10-06T05:10:30.946Z,4.70
2022-10-06T05:12:59.980Z,4.90
2022-10-06T05:15:29.267Z,4.50
2022-10-06T05:17:58.214Z,5.30
2022-10-06T05:20:28.529Z,4.80
2022-10-06T05:22:58.038Z,4.80
2022-10-06T05:25:29.774Z,4.50
2022-10-06T05:28:10.844Z,4.40
2022-10-06T05:30:58.051Z,4.20
2022-10-06T05:33:34.511Z,4.40
2022-10-06T05:36:18.766Z,4.40
2022-10-06T05:38:59.635Z,4.60
2022-10-06T05:41:42.668Z,4.60
2022-10-06T05:44:18.652Z,5.00
2022-10-06T05:46:54.192Z,5.30
2022-10-06T05:49:26.991Z,4.70
2022-10-06T05:51:59.791Z,4.30
2022-10-06T05:54:40.824Z,5.00
2022-10-06T06:01:56.403Z,5.00
2022-10-06T06:05:03.494Z,4.80
2022-10-06T06:08:28.045Z,5.00
2022-10-06T06:11:35.770Z,5.20
2022-10-06T06:15:25.350Z,5.40
2022-10-06T06:18:54.653Z,4.60
2022-10-06T06:27:13.240Z,4.70
2022-10-06T07:03:55.940Z,4.60
2022-10-06T07:06:32.414Z,5.30
2022-10-06T07:09:07.780Z,5.00
2022-10-06T07:11:43.276Z,5.10
2022-10-06T07:14:24.504Z,5.50
2022-10-06T07:17:15.696Z,5.20
2022-10-06T07:20:10.718Z,5.40
2022-10-06T07:22:59.846Z,5.40
2022-10-06T07:25:55.152Z,4.30
2022-10-06T07:28:56.366Z,4.60
2022-10-06T07:31:44.603Z,4.80
2022-10-06T07:34:28.938Z,4.70
2022-10-06T07:37:39.725Z,4.60
2022-10-06T07:40:34.030Z,4.30
2022-10-06T07:43:18.567Z,5.40
2022-10-06T07:46:28.707Z,4.70
2022-10-06T07:49:25.388Z,4.70
2022-10-06T07:52:13.146Z,4.50
2022-10-06T07:55:04.373Z,4.70
2022-10-06T07:58:17.768Z,7.20
2022-10-06T08:01:34.214Z,7.50
2022-10-06T08:04:22.036Z,9.90
2022-10-06T08:06:54.705Z,9.60
2022-10-06T08:09:27.581Z,7.70
2022-10-06T08:12:27.569Z,5.50
2022-10-06T08:22:38.858Z,3.60
2022-10-06T08:27:41.837Z,3.80
2022-10-06T08:29:59.619Z,3.50
2022-10-06T08:32:29.413Z,3.00
2022-10-06T08:37:37.965Z,5.00
2022-10-06T08:40:19.145Z,3.80
2022-10-06T08:43:08.322Z,4.00
2022-10-06T08:46:22.483Z,3.50
2022-10-06T08:49:35.724Z,3.40
2022-10-06T08:53:00.330Z,4.00
2022-10-06T08:56:11.020Z,7.00
2022-10-06T08:59:09.972Z,8.80
2022-10-06T09:02:52.780Z,4.50
2022-10-06T09:05:41.372Z,4.00
2022-10-06T09:09:48.676Z,6.10
2022-10-06T09:13:00.775Z,6.70
2022-10-06T09:20:25.194Z,4.10
2022-10-06T09:32:03.127Z,3.60
2022-10-06T09:35:05.923Z,3.70
2022-10-06T09:38:53.743Z,4.20
2022-10-06T09:42:21.115Z,3.10
2022-10-06T09:45:37.035Z,2.80
2022-10-06T09:48:46.951Z,6.70
2022-10-06T09:52:25.435Z,15.40
2022-10-06T09:55:16.154Z,18.20
2022-10-06T09:58:04.936Z,10.60
2022-10-06T10:01:02.376Z,5.40
2022-10-06T10:04:21.029Z,2.80
2022-10-06T10:07:29.766Z,3.40
2022-10-06T10:10:50.622Z,7.90
2022-10-06T10:14:06.181Z,5.60
2022-10-06T10:17:21.178Z,4.00
2022-10-06T10:20:35.502Z,2.40
2022-10-06T10:24:07.913Z,2.10
2022-10-06T10:27:20.300Z,1.80
2022-10-06T10:30:42.949Z,4.70
2022-10-06T10:33:26.977Z,6.20
2022-10-06T10:36:22.594Z,3.40
2022-10-06T10:39:00.299Z,2.90
2022-10-06T10:41:47.688Z,5.20
2022-10-06T10:45:07.198Z,9.60
2022-10-06T10:48:25.265Z,9.50
2022-10-06T10:51:45.369Z,5.30
2022-10-06T10:59:19.657Z,4.70
2022-10-06T11:02:45.537Z,2.80
2022-10-06T11:06:14.017Z,1.90
2022-10-06T11:13:16.516Z,3.70
2022-10-06T11:16:37.363Z,2.60
2022-10-06T11:29:27.386Z,3.30
2022-10-06T11:32:32.906Z,2.60
2022-10-06T11:35:15.352Z,3.20
2022-10-06T11:38:21.270Z,7.40
2022-10-06T11:41:36.976Z,3.70
2022-10-06T11:44:32.613Z,3.90
2022-10-06T11:47:45.980Z,4.10
2022-10-06T11:50:45.379Z,5.10
2022-10-06T11:53:37.274Z,3.00
2022-10-06T11:56:18.407Z,2.40
2022-10-06T11:59:30.382Z,1.90
2022-10-06T12:02:32.709Z,1.90
2022-10-06T12:05:35.651Z,5.50
2022-10-06T12:08:02.318Z,3.80
2022-10-06T12:10:32.660Z,3.30
2022-10-06T12:20:38.678Z,2.90
2022-10-06T12:24:02.853Z,2.70
2022-10-06T12:26:49.538Z,3.10
2022-10-06T12:30:26.586Z,2.10
2022-10-06T12:33:05.207Z,1.30
2022-10-06T12:35:42.642Z,1.80
2022-10-06T12:38:44.637Z,2.20
2022-10-06T12:41:16.465Z,1.40
2022-10-06T12:43:55.872Z,3.10
2022-10-06T12:47:06.237Z,4.80
2022-10-06T12:50:06.606Z,3.40
2022-10-06T12:52:56.482Z,3.00
2022-10-06T13:02:50.844Z,2.40
2022-10-06T13:09:13.468Z,4.10
2022-10-06T13:18:54.344Z,2.70
2022-10-06T13:29:37.833Z,1.50
2022-10-06T13:32:21.488Z,1.90
2022-10-06T13:35:26.534Z,4.30
2022-10-06T13:38:06.146Z,4.20
2022-10-06T13:41:13.688Z,2.30
2022-10-06T13:44:11.980Z,7.50
2022-10-06T13:47:40.306Z,6.70
2022-10-06T13:50:20.796Z,2.10
2022-10-06T13:56:52.161Z,4.90
2022-10-06T13:59:53.520Z,2.60
2022-10-06T14:03:02.094Z,1.80
2022-10-06T14:05:46.834Z,2.00
2022-10-06T14:08:33.933Z,2.80
2022-10-06T14:11:31.611Z,8.30
2022-10-06T14:14:12.114Z,3.40
2022-10-06T14:17:14.158Z,2.90
2022-10-06T14:20:45.068Z,1.40
2022-10-06T14:23:53.523Z,1.50
2022-10-06T14:29:50.006Z,2.00
2022-10-06T14:32:53.404Z,2.50
2022-10-06T14:35:59.987Z,1.90
2022-10-06T14:38:50.865Z,1.70
2022-10-06T14:42:05.787Z,2.00
2022-10-06T14:45:10.937Z,1.40
2022-10-06T14:48:21.683Z,1.40
2022-10-06T14:51:08.065Z,1.50
2022-10-06T14:53:46.070Z,1.80
2022-10-06T14:56:24.579Z,2.30
2022-10-06T14:59:15.230Z,2.40
2022-10-06T15:02:26.001Z,3.10
2022-10-06T15:05:07.617Z,3.10
2022-10-06T15:08:11.169Z,2.50
2022-10-06T15:10:53.551Z,2.90
2022-10-06T15:13:52.561Z,2.80
2022-10-06T15:16:33.486Z,3.90
2022-10-06T15:19:25.750Z,3.80
2022-10-06T15:22:13.849Z,3.60
2022-10-06T15:25:14.932Z,3.40
2022-10-06T15:28:25.046Z,3.80
2022-10-06T15:31:11.683Z,3.30
2022-10-06T15:33:57.352Z,4.10
2022-10-06T15:39:38.716Z,3.10
2022-10-06T15:42:16.907Z,3.70
2022-10-06T15:45:12.684Z,5.00
2022-10-06T15:48:28.209Z,3.90
2022-10-06T15:55:11.668Z,3.50
2022-10-06T15:57:57.573Z,4.10
2022-10-06T16:01:51.478Z,4.30
2022-10-06T16:05:30.107Z,3.90
2022-10-06T16:07:50.595Z,3.10
2022-10-06T16:10:42.916Z,4.00
2022-10-06T16:13:34.863Z,5.40
2022-10-06T16:20:14.377Z,5.60
2022-10-06T16:22:55.365Z,5.50
2022-10-06T16:26:07.363Z,5.20
2022-10-06T16:29:03.953Z,5.40
2022-10-06T16:31:59.397Z,5.00
2022-10-06T16:35:06.854Z,6.40
2022-10-06T16:37:57.918Z,7.30
2022-10-06T16:41:27.992Z,8.90
2022-10-06T16:43:50.609Z,9.80
2022-10-06T16:46:43.068Z,12.30
2022-10-06T16:49:47.060Z,14.00
2022-10-06T16:58:05.124Z,17.30
2022-10-06T17:04:34.494Z,14.80
2022-10-06T17:10:44.013Z,11.50
2022-10-06T17:14:00.958Z,12.60
2022-10-06T17:17:03.276Z,12.80
2022-10-06T17:20:07.634Z,13.00
2022-10-06T17:26:32.487Z,18.10
2022-10-06T17:30:26.838Z,16.60
2022-10-06T17:33:36.763Z,17.60
2022-10-06T17:36:55.156Z,18.60
2022-10-06T17:48:33.875Z,28.80
2022-10-06T18:44:17.878Z,31.00
2022-10-06T18:48:15.277Z,32.70
2022-10-06T18:52:28.908Z,30.40
2022-10-06T19:37:00.220Z,59.90
2022-10-06T19:40:27.795Z,56.80
2022-10-06T19:44:01.608Z,59.60
2022-10-06T19:47:17.436Z,65.10
2022-10-06T20:01:39.151Z,62.10
2022-10-06T20:25:30.545Z,69.30
2022-10-06T20:27:58.157Z,70.50
2022-10-06T20:40:04.886Z,79.70
2022-10-06T20:50:58.276Z,79.00
2022-10-06T20:53:43.654Z,79.60
2022-10-06T20:56:46.228Z,78.50
2022-10-06T21:04:08.038Z,78.20
2022-10-06T21:07:23.575Z,76.20
2022-10-06T21:10:33.343Z,74.10
2022-10-06T21:13:27.412Z,77.20
2022-10-06T21:17:44.336Z,71.80
2022-10-06T21:21:05.136Z,73.20
2022-10-06T21:28:37.536Z,69.90
2022-10-06T21:35:48.233Z,66.30
2022-10-06T21:38:28.871Z,63.90
2022-10-06T21:46:26.898Z,67.60
2022-10-06T22:00:18.715Z,67.30
2022-10-06T22:03:11.381Z,59.30
2022-10-06T22:05:57.692Z,59.00
2022-10-06T22:08:53.177Z,55.80
2022-10-06T22:11:41.693Z,56.80
2022-10-06T22:14:32.429Z,58.70
2022-10-06T22:17:18.951Z,56.50
2022-10-06T22:19:55.417Z,54.50
2022-10-06T22:22:42.272Z,51.80
2022-10-06T22:25:36.106Z,57.80
2022-10-06T22:28:21.033Z,56.70
2022-10-06T22:31:12.882Z,57.40
2022-10-06T22:34:14.036Z,54.80
2022-10-06T22:36:49.296Z,53.40
2022-10-06T22:39:32.094Z,54.60
2022-10-06T22:42:06.626Z,50.20
2022-10-06T22:44:50.292Z,51.50
2022-10-06T22:47:25.949Z,51.90
2022-10-06T22:50:25.349Z,51.80
2022-10-06T22:53:41.029Z,51.60
2022-10-06T22:56:21.703Z,55.10
2022-10-06T22:59:23.648Z,50.80
2022-10-06T23:02:22.471Z,52.70
2022-10-06T23:05:08.832Z,50.80
2022-10-06T23:08:40.241Z,49.40
2022-10-06T23:11:29.186Z,51.50
2022-10-06T23:14:34.176Z,54.50
2022-10-06T23:17:17.967Z,55.70
2022-10-06T23:20:18.611Z,55.00
2022-10-06T23:22:54.296Z,57.00
2022-10-06T23:25:32.070Z,55.10
2022-10-06T23:28:10.418Z,58.50
2022-10-06T23:31:12.138Z,55.40
2022-10-06T23:36:08.028Z,56.60
2022-10-06T23:37:40.021Z,55.80
2022-10-06T23:40:25.803Z,54.30
2022-10-06T23:43:37.988Z,52.40
2022-10-06T23:46:36.269Z,53.10
2022-10-06T23:49:36.888Z,53.40
2022-10-06T23:52:34.685Z,55.60
2022-10-06T23:55:13.912Z,56.40
2022-10-06T23:57:55.351Z,57.70
